Time;durP1;ratioP1;P1;durP2;ratioP2;P2;SDS_P1;SDS_P2;PMS_P1;PMS_P2;Temp;Humidity;BMP_temperature;BMP_pressure;BME280_temperature;BME280_humidity;BME280_pressure;Samples;Min_cycle;Max_cycle;Signal;HPM_P1;HPM_P2
2022/01/05 00:00:29;;;;;;;;;;;6.90;94.00;;;;;;5093927;28;19944;-66
2022/01/05 00:02:54;;;;;;;;;;;6.90;94.20;;;;;;5093815;28;20040;-66
2022/01/05 00:05:20;;;;;;;;;;;6.90;94.50;;;;;;5105469;28;20143;-66
2022/01/05 00:07:45;;;;;;;;;;;6.90;94.70;;;;;;5079299;28;19949;-66
2022/01/05 00:10:11;;;;;;;;;;;7.00;94.80;;;;;;5103185;28;19959;-66
2022/01/05 00:12:36;;;;;;;;;;;7.00;94.80;;;;;;5114338;28;20291;-66
2022/01/05 00:15:02;;;;;;;;;;;6.90;94.80;;;;;;5114019;28;19989;-66
2022/01/05 00:17:28;;;;;;;;;;;6.90;94.90;;;;;;5112273;28;19979;-66
2022/01/05 00:19:54;;;;;;;;;;;6.80;95.10;;;;;;5095689;28;19990;-66
2022/01/05 00:22:19;;;;;;;;;;;6.80;95.20;;;;;;5113929;28;20078;-66
2022/01/05 00:24:46;;;;;;;;;;;6.80;95.30;;;;;;5109196;28;19947;-66
2022/01/05 00:27:11;;;;;;;;;;;6.70;95.40;;;;;;5075213;28;20015;-66
2022/01/05 00:29:37;;;;;;;;;;;6.70;95.40;;;;;;5093432;28;20392;-66
2022/01/05 00:32:03;;;;;;;;;;;6.70;95.50;;;;;;5093308;28;20419;-66
2022/01/05 00:34:28;;;;;;;;;;;6.70;95.60;;;;;;5076615;28;20040;-66
2022/01/05 00:36:54;;;;;;;;;;;6.70;95.70;;;;;;5113726;28;20032;-66
2022/01/05 00:39:19;;;;;;;;;;;6.70;95.80;;;;;;5113684;28;19987;-66
2022/01/05 00:41:45;;;;;;;;;;;6.90;95.90;;;;;;5094393;28;19952;-66
2022/01/05 00:44:11;;;;;;;;;;;7.00;95.90;;;;;;5076189;28;19959;-66
2022/01/05 00:46:36;;;;;;;;;;;7.00;95.90;;;;;;5076228;28;19998;-66
2022/01/05 00:49:02;;;;;;;;;;;7.20;96.00;;;;;;5093254;28;19940;-66
2022/01/05 00:51:27;;;;;;;;;;;7.40;95.90;;;;;;5108950;28;19944;-66
2022/01/05 00:53:53;;;;;;;;;;;7.40;95.70;;;;;;5095298;28;20361;-66
2022/01/05 00:56:19;;;;;;;;;;;7.40;95.50;;;;;;5099937;28;20063;-66
2022/01/05 00:58:44;;;;;;;;;;;7.50;95.10;;;;;;5107488;28;19960;-66
2022/01/05 01:01:10;;;;;;;;;;;7.40;94.20;;;;;;5095308;28;19947;-66
2022/01/05 01:03:36;;;;;;;;;;;7.30;94.10;;;;;;5062839;28;19949;-66
2022/01/05 01:06:02;;;;;;;;;;;7.10;94.20;;;;;;5093348;28;20051;-66
2022/01/05 01:08:27;;;;;;;;;;;7.00;94.50;;;;;;5104274;28;19966;-66
2022/01/05 01:10:53;;;;;;;;;;;6.90;94.80;;;;;;5105588;28;19964;-66
2022/01/05 01:13:18;;;;;;;;;;;6.90;95.00;;;;;;5106939;28;20049;-66
2022/01/05 01:15:45;;;;;;;;;;;7.00;95.20;;;;;;5102598;28;19982;-66
2022/01/05 01:18:11;;;;;;;;;;;7.10;95.20;;;;;;5092977;28;19967;-66
2022/01/05 01:20:36;;;;;;;;;;;7.10;95.20;;;;;;5097019;28;20298;-66
2022/01/05 01:23:02;;;;;;;;;;;7.20;95.10;;;;;;5113269;28;19938;-66
2022/01/05 01:25:27;;;;;;;;;;;7.30;95.00;;;;;;5105626;28;20303;-66
2022/01/05 01:27:53;;;;;;;;;;;7.20;94.70;;;;;;5098392;28;19975;-66
2022/01/05 01:30:19;;;;;;;;;;;7.10;94.50;;;;;;5111374;28;19963;-66
2022/01/05 01:32:44;;;;;;;;;;;7.00;94.50;;;;;;5112829;28;19962;-66
2022/01/05 01:35:10;;;;;;;;;;;6.90;94.60;;;;;;5113210;28;19947;-66
2022/01/05 01:37:36;;;;;;;;;;;6.80;94.70;;;;;;5112674;28;20353;-66
2022/01/05 01:40:02;;;;;;;;;;;6.90;94.80;;;;;;5115201;28;19980;-66
2022/01/05 01:42:27;;;;;;;;;;;6.70;94.80;;;;;;5116970;28;20405;-66
2022/01/05 01:44:53;;;;;;;;;;;6.60;95.10;;;;;;5116892;28;19963;-66
2022/01/05 01:47:18;;;;;;;;;;;6.60;95.30;;;;;;5111371;28;19953;-66
2022/01/05 01:49:44;;;;;;;;;;;6.70;95.50;;;;;;5096451;28;20397;-66
2022/01/05 01:52:10;;;;;;;;;;;6.80;95.70;;;;;;5096332;28;20386;-66
2022/01/05 01:54:35;;;;;;;;;;;6.90;95.70;;;;;;5096359;28;20438;-66
2022/01/05 01:57:02;;;;;;;;;;;7.00;95.70;;;;;;5112195;28;20373;-66
2022/01/05 01:59:27;;;;;;;;;;;7.10;95.60;;;;;;5116635;28;19941;-66
2022/01/05 02:01:53;;;;;;;;;;;7.20;95.60;;;;;;5116596;28;19946;-66
2022/01/05 02:04:19;;;;;;;;;;;7.10;95.20;;;;;;5116525;28;20469;-66
2022/01/05 02:06:45;;;;;;;;;;;6.90;94.90;;;;;;5102390;28;19991;-66
2022/01/05 02:09:10;;;;;;;;;;;6.90;95.10;;;;;;5096004;28;20010;-66
2022/01/05 02:11:38;;;;;;;;;;;7.00;95.30;;;;;;5096898;28;20010;-66
2022/01/05 02:14:03;;;;;;;;;;;7.10;95.10;;;;;;5095919;28;19942;-66
2022/01/05 02:16:32;;;;;;;;;;;7.00;94.90;;;;;;5096902;28;19987;-66
2022/01/05 02:18:58;;;;;;;;;;;7.00;94.80;;;;;;5095806;28;19941;-66
2022/01/05 02:21:24;;;;;;;;;;;6.90;94.70;;;;;;5095765;28;19937;-66
2022/01/05 02:23:50;;;;;;;;;;;6.90;94.80;;;;;;5095699;28;19962;-66
2022/01/05 02:26:16;;;;;;;;;;;6.90;94.70;;;;;;5108801;28;19949;-66
2022/01/05 02:28:42;;;;;;;;;;;6.80;95.00;;;;;;5097677;28;19946;-66
2022/01/05 02:31:08;;;;;;;;;;;6.90;95.20;;;;;;5115930;28;20005;-66
2022/01/05 02:33:34;;;;;;;;;;;7.00;95.20;;;;;;5115954;28;20395;-66
2022/01/05 02:35:59;;;;;;;;;;;7.10;95.20;;;;;;5111681;28;19954;-66
2022/01/05 02:38:25;;;;;;;;;;;7.10;95.20;;;;;;5077339;28;19956;-66
2022/01/05 02:40:52;;;;;;;;;;;7.10;95.10;;;;;;5103097;28;19943;-66
2022/01/05 02:43:17;;;;;;;;;;;6.90;95.00;;;;;;5113991;28;19998;-66
2022/01/05 02:45:43;;;;;;;;;;;6.80;95.00;;;;;;5115695;28;19945;-66
2022/01/05 02:48:09;;;;;;;;;;;6.80;95.20;;;;;;5098068;28;20032;-66
2022/01/05 02:50:35;;;;;;;;;;;6.80;95.30;;;;;;5095278;28;19974;-66
2022/01/05 02:53:00;;;;;;;;;;;6.80;95.30;;;;;;5109479;28;19959;-66
2022/01/05 02:55:26;;;;;;;;;;;6.80;95.30;;;;;;5112570;28;20001;-66
2022/01/05 02:57:52;;;;;;;;;;;6.80;95.30;;;;;;5095114;28;19954;-66
2022/01/05 03:00:17;;;;;;;;;;;6.70;95.40;;;;;;5095041;28;19949;-66
2022/01/05 03:02:43;;;;;;;;;;;6.70;95.50;;;;;;5088361;28;19987;-66
2022/01/05 03:05:09;;;;;;;;;;;6.70;95.60;;;;;;5115398;28;20333;-66
2022/01/05 03:07:39;;;;;;;;;;;6.90;95.70;;;;;;5115290;28;19935;-66
2022/01/05 03:10:09;;;;;;;;;;;7.00;95.80;;;;;;5097448;28;20486;-66
2022/01/05 03:12:34;;;;;;;;;;;7.10;95.70;;;;;;5096377;28;19990;-66
2022/01/05 03:15:00;;;;;;;;;;;7.20;95.60;;;;;;5094744;28;19954;-66
2022/01/05 03:17:25;;;;;;;;;;;7.20;95.40;;;;;;5076549;28;19947;-66
2022/01/05 03:19:51;;;;;;;;;;;7.30;95.20;;;;;;5094552;28;20354;-66
2022/01/05 03:22:17;;;;;;;;;;;7.40;95.00;;;;;;5091809;28;19949;-66
2022/01/05 03:24:42;;;;;;;;;;;7.40;94.60;;;;;;5097007;28;19986;-66
2022/01/05 03:27:08;;;;;;;;;;;7.40;94.50;;;;;;5101706;28;19939;-66
2022/01/05 03:29:33;;;;;;;;;;;7.40;94.20;;;;;;5094503;28;19958;-66
2022/01/05 03:31:59;;;;;;;;;;;7.40;94.00;;;;;;5106550;28;20013;-66
2022/01/05 03:34:24;;;;;;;;;;;7.30;93.70;;;;;;5114780;28;20061;-66
2022/01/05 03:36:50;;;;;;;;;;;7.10;93.90;;;;;;5114736;28;19946;-66
2022/01/05 03:39:16;;;;;;;;;;;7.00;94.10;;;;;;5114715;28;19936;-66
2022/01/05 03:41:42;;;;;;;;;;;6.90;94.40;;;;;;5112860;28;20059;-66
2022/01/05 03:44:07;;;;;;;;;;;7.00;94.50;;;;;;5114608;28;19980;-66
2022/01/05 03:46:33;;;;;;;;;;;7.00;94.80;;;;;;5096233;28;20477;-66
2022/01/05 03:48:59;;;;;;;;;;;7.00;94.90;;;;;;5114522;28;19951;-66
2022/01/05 03:51:25;;;;;;;;;;;7.10;94.90;;;;;;5094340;28;20050;-66
2022/01/05 03:53:51;;;;;;;;;;;7.10;94.90;;;;;;5114339;28;19990;-66
2022/01/05 03:56:16;;;;;;;;;;;7.10;94.90;;;;;;5112392;28;19996;-66
2022/01/05 03:58:42;;;;;;;;;;;7.00;94.90;;;;;;5114321;28;19942;-66
2022/01/05 04:01:08;;;;;;;;;;;7.00;94.90;;;;;;5108440;28;19945;-66
2022/01/05 04:03:33;;;;;;;;;;;7.00;95.00;;;;;;5093830;28;20040;-66
2022/01/05 04:05:59;;;;;;;;;;;7.10;95.10;;;;;;5093801;28;19976;-66
2022/01/05 04:08:25;;;;;;;;;;;7.20;94.70;;;;;;5093746;28;19983;-66
2022/01/05 04:10:50;;;;;;;;;;;7.10;94.50;;;;;;5095706;28;19967;-66
2022/01/05 04:13:16;;;;;;;;;;;7.00;94.70;;;;;;5114105;28;19948;-66
2022/01/05 04:15:42;;;;;;;;;;;6.90;94.90;;;;;;5095763;28;20380;-66
2022/01/05 04:18:07;;;;;;;;;;;6.90;95.10;;;;;;5114005;28;19971;-66
2022/01/05 04:20:33;;;;;;;;;;;6.90;95.20;;;;;;5095559;28;20294;-66
2022/01/05 04:22:58;;;;;;;;;;;7.00;95.10;;;;;;5113489;28;20326;-66
2022/01/05 04:25:24;;;;;;;;;;;7.10;95.10;;;;;;5113923;28;19989;-66
2022/01/05 04:27:50;;;;;;;;;;;7.20;95.10;;;;;;5111993;28;19945;-66
2022/01/05 04:30:15;;;;;;;;;;;7.30;95.10;;;;;;5113784;28;19942;-66
2022/01/05 04:32:41;;;;;;;;;;;7.40;94.70;;;;;;5112039;28;20426;-66
2022/01/05 04:35:07;;;;;;;;;;;7.40;94.60;;;;;;5113754;28;20387;-66
2022/01/05 04:37:32;;;;;;;;;;;7.40;94.30;;;;;;5113748;28;20025;-66
2022/01/05 04:39:58;;;;;;;;;;;7.50;94.00;;;;;;5113712;28;20287;-65
2022/01/05 04:42:25;;;;;;;;;;;7.40;94.00;;;;;;5099014;28;20045;-66
2022/01/05 04:44:51;;;;;;;;;;;7.40;94.10;;;;;;5095039;28;19954;-66
2022/01/05 04:47:16;;;;;;;;;;;7.40;93.80;;;;;;5093525;28;19951;-66
2022/01/05 04:49:42;;;;;;;;;;;7.40;93.50;;;;;;5093222;28;19952;-66
2022/01/05 04:52:07;;;;;;;;;;;7.30;93.70;;;;;;5061933;22;19988;-66
2022/01/05 04:54:33;;;;;;;;;;;7.10;94.10;;;;;;5052964;28;19947;-66
2022/01/05 04:56:58;;;;;;;;;;;7.10;94.50;;;;;;5034823;28;20315;-66
2022/01/05 04:59:24;;;;;;;;;;;7.00;94.70;;;;;;5052945;28;19947;-66
2022/01/05 05:01:49;;;;;;;;;;;6.90;95.00;;;;;;5052575;28;20038;-66
2022/01/05 05:04:15;;;;;;;;;;;7.00;95.00;;;;;;5052839;28;19947;-66
2022/01/05 05:06:40;;;;;;;;;;;7.00;94.90;;;;;;5052550;28;19975;-66
2022/01/05 05:09:06;;;;;;;;;;;7.00;94.90;;;;;;5052749;28;19967;-66
2022/01/05 05:11:32;;;;;;;;;;;7.00;94.90;;;;;;5052275;28;19965;-66
2022/01/05 05:13:57;;;;;;;;;;;7.10;95.10;;;;;;5056437;28;19947;-66
2022/01/05 05:16:23;;;;;;;;;;;7.20;95.20;;;;;;5056432;28;19947;-66
2022/01/05 05:18:48;;;;;;;;;;;7.30;95.20;;;;;;5056768;28;20292;-66
2022/01/05 05:21:14;;;;;;;;;;;7.40;95.00;;;;;;5056461;28;20352;-66
2022/01/05 05:23:39;;;;;;;;;;;7.30;94.80;;;;;;5056649;28;20422;-66
2022/01/05 05:26:05;;;;;;;;;;;7.30;94.70;;;;;;5056293;28;19943;-66
2022/01/05 05:28:30;;;;;;;;;;;7.20;94.50;;;;;;5056234;28;19963;-66
2022/01/05 05:30:56;;;;;;;;;;;7.00;94.60;;;;;;5056436;28;20412;-66
2022/01/05 05:33:22;;;;;;;;;;;7.00;95.00;;;;;;5056711;28;19953;-66
2022/01/05 05:35:47;;;;;;;;;;;6.90;95.10;;;;;;5056440;28;19947;-66
2022/01/05 05:38:14;;;;;;;;;;;6.80;95.40;;;;;;5056102;28;20043;-66
2022/01/05 05:40:41;;;;;;;;;;;6.80;95.80;;;;;;5055968;28;19947;-66
2022/01/05 05:43:08;;;;;;;;;;;6.70;95.90;;;;;;5056124;28;19978;-66
2022/01/05 05:45:33;;;;;;;;;;;6.70;96.10;;;;;;5055967;28;19943;-66
2022/01/05 05:47:59;;;;;;;;;;;6.80;96.20;;;;;;5055949;28;19949;-66
2022/01/05 05:50:24;;;;;;;;;;;6.90;96.20;;;;;;5038001;28;19947;-66
2022/01/05 05:52:50;;;;;;;;;;;7.00;96.20;;;;;;5056115;28;19944;-66
2022/01/05 05:55:15;;;;;;;;;;;7.10;96.20;;;;;;5056099;28;20047;-66
2022/01/05 05:57:42;;;;;;;;;;;7.20;96.10;;;;;;5055441;28;20402;-66
2022/01/05 06:00:08;;;;;;;;;;;7.20;96.00;;;;;;5054770;28;19953;-66
2022/01/05 06:02:33;;;;;;;;;;;7.20;95.90;;;;;;5052082;28;19944;-66
2022/01/05 06:04:59;;;;;;;;;;;7.20;95.50;;;;;;5053942;28;19955;-66
2022/01/05 06:07:24;;;;;;;;;;;7.20;95.30;;;;;;5036380;28;20388;-66
2022/01/05 06:09:50;;;;;;;;;;;7.10;95.10;;;;;;5054880;28;20054;-66
2022/01/05 06:12:15;;;;;;;;;;;7.10;95.10;;;;;;5053378;28;20328;-66
2022/01/05 06:14:41;;;;;;;;;;;7.00;95.30;;;;;;5053481;28;20041;-66
2022/01/05 06:17:06;;;;;;;;;;;7.00;95.50;;;;;;5054690;28;19954;-66
2022/01/05 06:19:32;;;;;;;;;;;6.90;95.50;;;;;;5055087;28;19956;-66
2022/01/05 06:21:58;;;;;;;;;;;6.90;95.80;;;;;;5055045;28;19937;-66
2022/01/05 06:24:24;;;;;;;;;;;6.80;96.00;;;;;;5053731;28;20361;-66
2022/01/05 06:26:52;;;;;;;;;;;6.90;96.10;;;;;;5053567;28;19968;-66
2022/01/05 06:29:18;;;;;;;;;;;7.00;96.10;;;;;;5054500;28;19955;-66
2022/01/05 06:31:44;;;;;;;;;;;7.00;96.10;;;;;;5054242;28;19958;-66
2022/01/05 06:34:10;;;;;;;;;;;7.10;96.20;;;;;;5053424;28;19958;-66
2022/01/05 06:36:35;;;;;;;;;;;7.30;96.10;;;;;;5054267;28;19939;-66
2022/01/05 06:39:02;;;;;;;;;;;7.40;96.00;;;;;;5052774;28;19946;-66
2022/01/05 06:41:28;;;;;;;;;;;7.40;95.90;;;;;;5053266;28;19959;-66
2022/01/05 06:43:53;;;;;;;;;;;7.50;95.60;;;;;;5054583;28;20309;-66
2022/01/05 06:46:19;;;;;;;;;;;7.40;95.20;;;;;;5054065;28;19951;-66
2022/01/05 06:48:45;;;;;;;;;;;7.30;95.10;;;;;;5054433;28;19948;-66
2022/01/05 06:51:10;;;;;;;;;;;7.20;95.40;;;;;;5053462;28;20381;-66
2022/01/05 06:53:36;;;;;;;;;;;7.20;95.50;;;;;;5054225;28;19945;-66
2022/01/05 06:56:03;;;;;;;;;;;7.20;95.40;;;;;;5053404;28;19952;-67
2022/01/05 06:58:28;;;;;;;;;;;7.20;95.50;;;;;;5053837;28;19952;-66
2022/01/05 07:00:55;;;;;;;;;;;7.10;95.60;;;;;;5053434;28;20384;-66
2022/01/05 07:03:21;;;;;;;;;;;7.10;95.80;;;;;;5053311;28;19965;-66
2022/01/05 07:05:46;;;;;;;;;;;7.20;95.90;;;;;;5053892;28;19942;-66
2022/01/05 07:08:12;;;;;;;;;;;7.20;95.80;;;;;;5054386;28;19951;-66
2022/01/05 07:10:38;;;;;;;;;;;7.40;95.90;;;;;;5053072;28;19973;-66
2022/01/05 07:13:03;;;;;;;;;;;7.40;95.90;;;;;;5049421;28;19994;-66
2022/01/05 07:15:29;;;;;;;;;;;7.50;95.70;;;;;;5047177;28;19956;-66
2022/01/05 07:17:54;;;;;;;;;;;7.50;95.50;;;;;;5045465;28;20458;-66
2022/01/05 07:20:20;;;;;;;;;;;7.30;95.20;;;;;;5046859;28;20394;-66
2022/01/05 07:22:45;;;;;;;;;;;7.20;95.20;;;;;;5037080;28;19999;-66
2022/01/05 07:25:11;;;;;;;;;;;7.10;95.40;;;;;;5053360;28;20320;-66
2022/01/05 07:27:37;;;;;;;;;;;7.10;95.40;;;;;;5051909;28;19944;-66
2022/01/05 07:30:04;;;;;;;;;;;7.10;95.40;;;;;;5050375;28;20403;-66
2022/01/05 07:32:30;;;;;;;;;;;7.00;95.50;;;;;;5045548;28;20539;-66
2022/01/05 07:34:56;;;;;;;;;;;7.00;95.70;;;;;;5051470;28;19992;-66
2022/01/05 07:37:21;;;;;;;;;;;7.00;95.80;;;;;;5052752;28;20034;-66
2022/01/05 07:39:47;;;;;;;;;;;7.00;95.90;;;;;;5053240;28;20049;-66
2022/01/05 07:42:13;;;;;;;;;;;7.10;96.00;;;;;;5052184;28;20100;-66
2022/01/05 07:44:38;;;;;;;;;;;7.20;96.10;;;;;;5052474;28;19954;-66
2022/01/05 07:47:04;;;;;;;;;;;7.40;96.20;;;;;;5042372;28;20007;-66
2022/01/05 07:49:30;;;;;;;;;;;7.40;96.10;;;;;;5045326;28;19955;-66
2022/01/05 07:51:55;;;;;;;;;;;7.50;96.00;;;;;;5045991;28;20408;-66
2022/01/05 07:54:21;;;;;;;;;;;7.50;95.80;;;;;;5052500;28;19977;-66
2022/01/05 07:56:46;;;;;;;;;;;7.40;95.70;;;;;;5052403;28;20000;-66
2022/01/05 07:59:12;;;;;;;;;;;7.40;95.50;;;;;;5052722;28;19960;-66
2022/01/05 08:01:38;;;;;;;;;;;7.30;95.40;;;;;;5033717;28;19958;-66
2022/01/05 08:04:04;;;;;;;;;;;7.20;95.50;;;;;;5052438;28;20001;-66
2022/01/05 08:06:30;;;;;;;;;;;7.20;95.60;;;;;;5053185;28;20477;-66
2022/01/05 08:08:55;;;;;;;;;;;7.10;95.80;;;;;;5034520;28;19956;-66
2022/01/05 08:11:21;;;;;;;;;;;7.00;96.30;;;;;;5050364;28;19966;-66
2022/01/05 08:13:47;;;;;;;;;;;7.10;96.30;;;;;;5053257;28;20028;-66
2022/01/05 08:16:12;;;;;;;;;;;7.10;96.30;;;;;;5034035;28;20045;-66
2022/01/05 08:18:38;;;;;;;;;;;7.20;96.40;;;;;;5052146;28;19985;-66
2022/01/05 08:21:04;;;;;;;;;;;7.30;96.50;;;;;;5051856;28;19978;-66
2022/01/05 08:23:29;;;;;;;;;;;7.40;96.50;;;;;;5028936;28;19949;-66
2022/01/05 08:25:55;;;;;;;;;;;7.60;96.30;;;;;;5050341;28;20750;-66
2022/01/05 08:28:21;;;;;;;;;;;7.60;96.10;;;;;;5046812;28;19947;-66
2022/01/05 08:30:46;;;;;;;;;;;7.60;96.00;;;;;;5050837;28;19966;-66
2022/01/05 08:33:13;;;;;;;;;;;7.40;95.80;;;;;;5052129;28;20290;-66
2022/01/05 08:35:39;;;;;;;;;;;7.40;95.90;;;;;;5048541;28;19942;-66
2022/01/05 08:38:05;;;;;;;;;;;7.30;96.10;;;;;;5050161;28;19946;-66
2022/01/05 08:40:31;;;;;;;;;;;7.30;96.20;;;;;;5051003;28;20004;-66
2022/01/05 08:42:57;;;;;;;;;;;7.20;96.20;;;;;;5042977;28;19955;-66
2022/01/05 08:45:23;;;;;;;;;;;7.30;96.30;;;;;;5044217;28;20040;-66
2022/01/05 08:47:50;;;;;;;;;;;7.20;96.40;;;;;;5052179;28;19987;-66
2022/01/05 08:50:16;;;;;;;;;;;7.30;96.50;;;;;;5052496;28;19935;-66
2022/01/05 08:52:42;;;;;;;;;;;7.40;96.50;;;;;;5047629;28;20432;-66
2022/01/05 08:55:08;;;;;;;;;;;7.40;96.50;;;;;;5034360;28;19953;-66
2022/01/05 08:57:33;;;;;;;;;;;7.60;96.50;;;;;;5052340;28;20028;-66
2022/01/05 08:59:59;;;;;;;;;;;7.60;96.30;;;;;;5051409;28;19944;-66
2022/01/05 09:02:25;;;;;;;;;;;7.70;96.20;;;;;;5050660;28;20400;-66
2022/01/05 09:04:52;;;;;;;;;;;7.70;96.10;;;;;;5051143;28;19947;-66
2022/01/05 09:07:18;;;;;;;;;;;7.70;96.00;;;;;;5051060;28;20007;-66
2022/01/05 09:09:44;;;;;;;;;;;7.60;95.80;;;;;;5046590;28;20313;-66
2022/01/05 09:12:10;;;;;;;;;;;7.50;95.60;;;;;;5052124;28;20417;-66
2022/01/05 09:14:36;;;;;;;;;;;7.40;95.90;;;;;;5051252;28;19986;-66
2022/01/05 09:17:01;;;;;;;;;;;7.40;96.20;;;;;;5051410;28;20389;-66
2022/01/05 09:19:28;;;;;;;;;;;7.40;96.20;;;;;;5050188;28;19948;-66
2022/01/05 09:21:54;;;;;;;;;;;7.40;96.30;;;;;;5050560;28;19943;-66
2022/01/05 09:24:20;;;;;;;;;;;7.50;96.30;;;;;;5046385;28;20460;-66
2022/01/05 09:26:45;;;;;;;;;;;7.70;96.20;;;;;;5033468;28;19951;-66
2022/01/05 09:29:11;;;;;;;;;;;7.70;96.00;;;;;;5051322;28;19959;-66
2022/01/05 09:31:36;;;;;;;;;;;7.80;96.10;;;;;;5047792;28;19978;-66
2022/01/05 09:34:02;;;;;;;;;;;7.90;95.90;;;;;;5045424;28;20039;-66
2022/01/05 09:36:38;;;;;;;;;;;8.00;96.00;;;;;;5048349;28;19943;-66
2022/01/05 09:41:59;;;;;;;;;;;8.20;95.90;;;;;;5041148;28;19949;-66
2022/01/05 09:44:41;;;;;;;;;;;8.20;95.10;;;;;;5024473;28;19943;-66
2022/01/05 09:47:10;;;;;;;;;;;8.10;94.80;;;;;;5048728;28;19985;-66
2022/01/05 09:49:37;;;;;;;;;;;8.20;94.80;;;;;;5051492;28;20283;-66
2022/01/05 09:52:04;;;;;;;;;;;8.10;94.80;;;;;;5050318;28;20017;-66
2022/01/05 09:54:30;;;;;;;;;;;8.10;94.90;;;;;;5049983;28;19955;-66
2022/01/05 09:56:56;;;;;;;;;;;8.10;95.10;;;;;;5051158;28;20054;-66
2022/01/05 09:59:22;;;;;;;;;;;8.20;95.20;;;;;;5035545;28;19955;-66
2022/01/05 10:01:47;;;;;;;;;;;8.30;95.20;;;;;;5055269;28;19949;-66
2022/01/05 10:04:14;;;;;;;;;;;8.40;94.90;;;;;;5054850;28;19997;-66
2022/01/05 10:06:40;;;;;;;;;;;8.40;94.70;;;;;;5055203;28;19967;-66
2022/01/05 10:09:06;;;;;;;;;;;8.40;94.70;;;;;;5035639;28;20426;-66
2022/01/05 10:11:32;;;;;;;;;;;8.50;94.40;;;;;;5036721;28;20025;-66
2022/01/05 10:13:58;;;;;;;;;;;8.50;94.10;;;;;;5054398;28;20480;-66
2022/01/05 10:16:25;;;;;;;;;;;8.40;94.20;;;;;;5035853;28;20001;-66
2022/01/05 10:18:50;;;;;;;;;;;8.30;94.50;;;;;;5036955;28;19944;-66
2022/01/05 10:21:17;;;;;;;;;;;8.20;94.90;;;;;;5054648;28;20383;-66
2022/01/05 10:23:50;;;;;;;;;;;8.00;95.30;;;;;;5054447;28;19943;-66
2022/01/05 10:26:19;;;;;;;;;;;8.00;95.60;;;;;;5054055;28;20084;-66
2022/01/05 10:28:46;;;;;;;;;;;8.10;95.70;;;;;;5053848;28;19989;-66
2022/01/05 10:31:15;;;;;;;;;;;8.10;95.60;;;;;;5054880;28;20003;-66
2022/01/05 10:33:41;;;;;;;;;;;8.30;95.60;;;;;;5054055;28;19950;-66
2022/01/05 10:36:06;;;;;;;;;;;8.40;95.40;;;;;;5054743;28;19943;-66
2022/01/05 10:38:32;;;;;;;;;;;8.60;95.30;;;;;;5035463;28;19946;-66
2022/01/05 10:40:57;;;;;;;;;;;8.60;95.20;;;;;;5054485;28;19943;-66
2022/01/05 10:43:23;;;;;;;;;;;8.80;95.10;;;;;;5054802;28;19968;-66
2022/01/05 10:45:51;;;;;;;;;;;8.80;94.80;;;;;;5053875;28;20316;-66
2022/01/05 10:48:18;;;;;;;;;;;8.90;94.60;;;;;;5054208;28;19980;-66
2022/01/05 10:50:45;;;;;;;;;;;8.60;94.00;;;;;;5054078;28;20018;-66
2022/01/05 10:53:14;;;;;;;;;;;8.50;94.40;;;;;;5055012;28;19947;-66
2022/01/05 10:55:42;;;;;;;;;;;8.50;94.40;;;;;;5036037;28;19986;-66
2022/01/05 10:58:12;;;;;;;;;;;8.50;94.60;;;;;;5036296;28;20033;-66
2022/01/05 11:00:50;;;;;;;;;;;8.50;94.60;;;;;;5054253;28;19944;-66
2022/01/05 11:03:37;;;;;;;;;;;8.40;94.70;;;;;;5047874;28;20394;-66
2022/01/05 11:06:16;;;;;;;;;;;8.50;94.90;;;;;;5054289;28;19990;-66
2022/01/05 11:08:50;;;;;;;;;;;8.70;94.80;;;;;;5054693;28;20074;-66
2022/01/05 11:11:31;;;;;;;;;;;8.80;94.60;;;;;;5053962;28;20035;-66
2022/01/05 11:13:57;;;;;;;;;;;8.90;94.20;;;;;;5054253;28;19947;-66
2022/01/05 11:16:26;;;;;;;;;;;9.00;93.90;;;;;;5054647;28;20056;-66
2022/01/05 11:19:10;;;;;;;;;;;9.00;93.70;;;;;;5054472;28;19948;-66
2022/01/05 11:21:39;;;;;;;;;;;8.90;93.60;;;;;;5053790;28;19943;-66
2022/01/05 11:24:05;;;;;;;;;;;8.70;94.30;;;;;;5054394;28;20006;-66
2022/01/05 11:26:31;;;;;;;;;;;8.50;94.90;;;;;;5053860;28;19996;-66
2022/01/05 11:28:57;;;;;;;;;;;8.50;95.10;;;;;;5053963;28;20330;-66
2022/01/05 11:31:22;;;;;;;;;;;8.40;95.50;;;;;;5053907;28;19963;-66
2022/01/05 11:33:48;;;;;;;;;;;8.40;95.40;;;;;;5036266;28;20004;-66
2022/01/05 11:36:14;;;;;;;;;;;8.50;95.30;;;;;;5036384;28;19944;-66
2022/01/05 11:38:40;;;;;;;;;;;8.50;95.50;;;;;;5053829;28;20308;-66
2022/01/05 11:41:05;;;;;;;;;;;8.60;95.50;;;;;;5053956;28;20022;-66
2022/01/05 11:43:34;;;;;;;;;;;8.70;95.30;;;;;;5054371;28;19950;-66
2022/01/05 11:46:13;;;;;;;;;;;8.60;95.30;;;;;;5053682;28;19970;-66
2022/01/05 11:48:40;;;;;;;;;;;8.70;95.40;;;;;;5052538;28;19949;-66
2022/01/05 11:51:06;;;;;;;;;;;8.70;95.40;;;;;;5052630;28;19972;-66
2022/01/05 11:53:42;;;;;;;;;;;8.80;95.50;;;;;;5051817;28;20379;-66
2022/01/05 11:56:17;;;;;;;;;;;8.90;95.50;;;;;;5052317;28;19991;-66
2022/01/05 11:58:52;;;;;;;;;;;8.80;94.80;;;;;;5053025;28;19967;-66
2022/01/05 12:01:19;;;;;;;;;;;8.70;95.00;;;;;;5052670;28;19947;-66
2022/01/05 12:03:57;;;;;;;;;;;8.60;95.10;;;;;;5035806;28;20034;-66
2022/01/05 12:06:27;;;;;;;;;;;8.60;95.30;;;;;;5053398;28;20352;-66
2022/01/05 12:08:57;;;;;;;;;;;8.60;95.30;;;;;;5051828;28;19945;-66
2022/01/05 12:11:33;;;;;;;;;;;8.60;95.30;;;;;;5052494;28;19968;-66
2022/01/05 12:14:03;;;;;;;;;;;8.60;95.30;;;;;;5052110;28;19991;-68
2022/01/05 12:16:28;;;;;;;;;;;8.50;95.50;;;;;;5035127;28;20333;-66
2022/01/05 12:19:05;;;;;;;;;;;8.60;95.60;;;;;;5049671;28;20379;-66
2022/01/05 12:21:44;;;;;;;;;;;8.60;95.80;;;;;;5047052;28;19964;-66
2022/01/05 12:24:10;;;;;;;;;;;8.70;95.90;;;;;;5033083;28;19994;-66
2022/01/05 12:26:36;;;;;;;;;;;8.90;95.90;;;;;;5034510;28;19991;-66
2022/01/05 12:29:02;;;;;;;;;;;8.90;95.90;;;;;;5049470;28;19955;-66
2022/01/05 12:31:46;;;;;;;;;;;9.00;95.70;;;;;;5051771;28;20426;-66
2022/01/05 12:34:11;;;;;;;;;;;9.00;95.20;;;;;;5050411;28;19944;-66
2022/01/05 12:36:38;;;;;;;;;;;9.00;95.00;;;;;;5051931;28;20008;-66
2022/01/05 12:39:07;;;;;;;;;;;8.90;95.20;;;;;;5027908;28;20378;-66
2022/01/05 12:41:39;;;;;;;;;;;8.70;95.50;;;;;;5033199;28;19986;-66
2022/01/05 12:44:05;;;;;;;;;;;8.60;95.90;;;;;;5046220;28;19936;-66
2022/01/05 12:46:33;;;;;;;;;;;8.60;96.00;;;;;;5051288;28;20312;-66
2022/01/05 12:49:00;;;;;;;;;;;8.80;95.80;;;;;;5052157;28;19944;-66
2022/01/05 12:51:34;;;;;;;;;;;8.90;95.70;;;;;;5041835;23;19984;-66
2022/01/05 12:54:02;;;;;;;;;;;8.90;95.70;;;;;;5049864;28;19948;-67
2022/01/05 12:56:28;;;;;;;;;;;9.00;95.60;;;;;;5055972;28;20007;-66
2022/01/05 12:58:56;;;;;;;;;;;9.00;95.60;;;;;;5057759;28;19985;-66
2022/01/05 13:01:26;;;;;;;;;;;9.10;95.50;;;;;;5059273;28;20085;-66
2022/01/05 13:03:53;;;;;;;;;;;9.10;95.50;;;;;;5052395;28;20036;-66
2022/01/05 13:06:21;;;;;;;;;;;9.20;95.30;;;;;;5058064;28;19953;-66
2022/01/05 13:08:47;;;;;;;;;;;9.00;95.10;;;;;;5055033;28;19968;-66
2022/01/05 13:11:33;;;;;;;;;;;8.80;95.50;;;;;;5049675;28;19966;-66
2022/01/05 13:14:18;;;;;;;;;;;8.70;95.90;;;;;;5029193;28;19947;-66
2022/01/05 13:16:54;;;;;;;;;;;8.70;95.80;;;;;;5051502;28;19952;-66
2022/01/05 13:19:26;;;;;;;;;;;8.70;95.80;;;;;;5052464;28;19954;-66
2022/01/05 13:21:54;;;;;;;;;;;8.60;96.10;;;;;;5052184;28;20406;-66
2022/01/05 13:24:20;;;;;;;;;;;8.80;96.10;;;;;;5033436;28;19954;-66
2022/01/05 13:26:59;;;;;;;;;;;8.90;96.10;;;;;;5051590;28;20038;-66
2022/01/05 13:29:28;;;;;;;;;;;8.90;96.10;;;;;;5052030;28;19990;-66
2022/01/05 13:32:13;;;;;;;;;;;9.10;96.10;;;;;;5050313;28;19979;-66
2022/01/05 13:34:45;;;;;;;;;;;9.10;95.90;;;;;;5054354;28;19985;-66
2022/01/05 13:37:11;;;;;;;;;;;9.10;95.80;;;;;;5037809;28;20291;-66
2022/01/05 13:39:44;;;;;;;;;;;9.20;95.70;;;;;;5055265;28;19946;-66
2022/01/05 13:42:18;;;;;;;;;;;9.10;95.40;;;;;;5055500;28;19945;-66
2022/01/05 13:44:45;;;;;;;;;;;8.90;95.80;;;;;;5053284;28;19951;-66
2022/01/05 13:47:11;;;;;;;;;;;8.80;96.10;;;;;;5055164;28;19952;-66
2022/01/05 13:49:37;;;;;;;;;;;8.70;96.30;;;;;;5050021;28;19966;-66
2022/01/05 13:52:04;;;;;;;;;;;8.70;96.40;;;;;;5055284;28;20069;-66
2022/01/05 13:54:31;;;;;;;;;;;8.60;96.50;;;;;;5047660;28;20038;-66
2022/01/05 13:56:57;;;;;;;;;;;8.70;96.60;;;;;;5053677;28;19944;-66
2022/01/05 13:59:22;;;;;;;;;;;8.80;96.60;;;;;;5055902;28;19940;-66
2022/01/05 14:01:57;;;;;;;;;;;8.90;96.50;;;;;;5036725;28;19995;-66
2022/01/05 14:04:23;;;;;;;;;;;9.00;96.40;;;;;;5054245;28;20008;-66
2022/01/05 14:06:59;;;;;;;;;;;9.00;96.40;;;;;;5054955;28;20402;-66
2022/01/05 14:09:30;;;;;;;;;;;9.10;96.30;;;;;;5052438;28;19958;-66
2022/01/05 14:11:57;;;;;;;;;;;9.20;96.20;;;;;;5035677;28;19963;-66
2022/01/05 14:14:24;;;;;;;;;;;9.20;95.90;;;;;;5052784;28;20292;-66
2022/01/05 14:16:51;;;;;;;;;;;9.00;95.80;;;;;;5054166;28;19947;-66
2022/01/05 14:19:27;;;;;;;;;;;8.90;96.00;;;;;;5054592;28;19980;-66
2022/01/05 14:22:01;;;;;;;;;;;8.80;96.20;;;;;;5053444;28;19986;-66
2022/01/05 14:24:33;;;;;;;;;;;8.80;96.40;;;;;;5054421;28;19945;-66
2022/01/05 14:26:59;;;;;;;;;;;8.80;96.50;;;;;;5052653;28;19966;-66
2022/01/05 14:29:25;;;;;;;;;;;8.80;96.60;;;;;;5054524;28;20408;-66
2022/01/05 14:31:51;;;;;;;;;;;8.90;96.50;;;;;;5054894;28;19957;-66